sensor_id;sensor_type;location;lat;lon;timestamp;temperature;humidity
30999;DHT22;20549;50.042;8.968;2023-10-13T00:01:38;19.10;99.90
30999;DHT22;20549;50.042;8.968;2023-10-13T00:04:04;19.00;99.90
30999;DHT22;20549;50.042;8.968;2023-10-13T00:06:31;19.00;99.90
30999;DHT22;20549;50.042;8.968;2023-10-13T00:08:57;19.00;99.90
30999;DHT22;20549;50.042;8.968;2023-10-13T00:11:24;19.00;99.90
30999;DHT22;20549;50.042;8.968;2023-10-13T00:13:51;19.00;99.90
30999;DHT22;20549;50.042;8.968;2023-10-13T00:16:17;19.00;99.90
30999;DHT22;20549;50.042;8.968;2023-10-13T00:18:44;19.00;99.90
30999;DHT22;20549;50.042;8.968;2023-10-13T00:21:10;19.00;99.90
30999;DHT22;20549;50.042;8.968;2023-10-13T00:23:40;18.90;99.90
30999;DHT22;20549;50.042;8.968;2023-10-13T00:26:06;18.90;99.90
30999;DHT22;20549;50.042;8.968;2023-10-13T00:28:33;18.90;99.90
30999;DHT22;20549;50.042;8.968;2023-10-13T00:31:02;18.80;99.90
30999;DHT22;20549;50.042;8.968;2023-10-13T00:33:29;18.80;99.90
30999;DHT22;20549;50.042;8.968;2023-10-13T00:35:55;18.80;99.90
30999;DHT22;20549;50.042;8.968;2023-10-13T00:38:22;18.80;99.90
30999;DHT22;20549;50.042;8.968;2023-10-13T00:40:48;18.80;99.90
30999;DHT22;20549;50.042;8.968;2023-10-13T00:43:18;18.80;99.90
30999;DHT22;20549;50.042;8.968;2023-10-13T00:45:50;18.80;99.90
30999;DHT22;20549;50.042;8.968;2023-10-13T00:48:29;18.80;99.90
30999;DHT22;20549;50.042;8.968;2023-10-13T00:50:56;18.90;99.90
30999;DHT22;20549;50.042;8.968;2023-10-13T00:53:23;18.90;99.90
30999;DHT22;20549;50.042;8.968;2023-10-13T00:55:48;18.90;99.90
30999;DHT22;20549;50.042;8.968;2023-10-13T00:58:15;18.90;99.90
30999;DHT22;20549;50.042;8.968;2023-10-13T01:00:41;18.90;99.90
30999;DHT22;20549;50.042;8.968;2023-10-13T01:03:14;18.90;99.90
30999;DHT22;20549;50.042;8.968;2023-10-13T01:05:41;18.90;99.90
30999;DHT22;20549;50.042;8.968;2023-10-13T01:08:07;19.00;99.90
30999;DHT22;20549;50.042;8.968;2023-10-13T01:10:33;19.00;99.90
30999;DHT22;20549;50.042;8.968;2023-10-13T01:13:00;19.00;99.90
30999;DHT22;20549;50.042;8.968;2023-10-13T01:15:27;19.00;99.90
30999;DHT22;20549;50.042;8.968;2023-10-13T01:17:53;19.00;99.90
30999;DHT22;20549;50.042;8.968;2023-10-13T01:20:20;19.10;99.90
30999;DHT22;20549;50.042;8.968;2023-10-13T01:22:46;19.10;99.90
30999;DHT22;20549;50.042;8.968;2023-10-13T01:25:16;19.10;99.90
30999;DHT22;20549;50.042;8.968;2023-10-13T01:27:42;19.10;99.90
30999;DHT22;20549;50.042;8.968;2023-10-13T01:30:09;19.10;99.90
30999;DHT22;20549;50.042;8.968;2023-10-13T01:32:38;19.10;99.90
30999;DHT22;20549;50.042;8.968;2023-10-13T01:35:05;19.10;99.90
30999;DHT22;20549;50.042;8.968;2023-10-13T01:37:32;19.10;99.90
30999;DHT22;20549;50.042;8.968;2023-10-13T01:39:58;19.10;99.90
30999;DHT22;20549;50.042;8.968;2023-10-13T01:42:25;19.10;99.90
30999;DHT22;20549;50.042;8.968;2023-10-13T01:44:51;19.10;99.90
30999;DHT22;20549;50.042;8.968;2023-10-13T01:47:18;19.10;99.90
30999;DHT22;20549;50.042;8.968;2023-10-13T01:49:45;19.00;99.90
30999;DHT22;20549;50.042;8.968;2023-10-13T01:52:14;19.00;99.90
30999;DHT22;20549;50.042;8.968;2023-10-13T01:54:44;19.00;99.90
30999;DHT22;20549;50.042;8.968;2023-10-13T01:57:10;19.00;99.90
30999;DHT22;20549;50.042;8.968;2023-10-13T01:59:48;19.00;99.90
30999;DHT22;20549;50.042;8.968;2023-10-13T02:02:15;19.00;99.90
30999;DHT22;20549;50.042;8.968;2023-10-13T02:04:41;19.00;99.90
30999;DHT22;20549;50.042;8.968;2023-10-13T02:07:16;19.00;99.90
30999;DHT22;20549;50.042;8.968;2023-10-13T02:09:43;19.00;99.90
30999;DHT22;20549;50.042;8.968;2023-10-13T02:12:10;19.00;99.90
30999;DHT22;20549;50.042;8.968;2023-10-13T02:14:36;19.00;99.90
30999;DHT22;20549;50.042;8.968;2023-10-13T02:17:03;19.10;99.90
30999;DHT22;20549;50.042;8.968;2023-10-13T02:19:40;19.10;99.90
30999;DHT22;20549;50.042;8.968;2023-10-13T02:22:07;19.10;99.90
30999;DHT22;20549;50.042;8.968;2023-10-13T02:24:34;19.10;99.90
30999;DHT22;20549;50.042;8.968;2023-10-13T02:27:01;19.20;99.90
30999;DHT22;20549;50.042;8.968;2023-10-13T02:29:27;19.20;99.90
30999;DHT22;20549;50.042;8.968;2023-10-13T02:31:54;19.20;99.90
30999;DHT22;20549;50.042;8.968;2023-10-13T02:34:21;19.20;99.90
30999;DHT22;20549;50.042;8.968;2023-10-13T02:36:47;19.30;99.90
30999;DHT22;20549;50.042;8.968;2023-10-13T02:39:17;19.30;99.90
30999;DHT22;20549;50.042;8.968;2023-10-13T02:41:40;19.30;99.90
30999;DHT22;20549;50.042;8.968;2023-10-13T02:44:07;19.30;99.90
30999;DHT22;20549;50.042;8.968;2023-10-13T02:46:34;19.30;99.90
30999;DHT22;20549;50.042;8.968;2023-10-13T02:49:00;19.30;99.90
30999;DHT22;20549;50.042;8.968;2023-10-13T02:51:26;19.40;99.90
30999;DHT22;20549;50.042;8.968;2023-10-13T02:53:59;19.40;99.90
30999;DHT22;20549;50.042;8.968;2023-10-13T02:56:25;19.40;99.90
30999;DHT22;20549;50.042;8.968;2023-10-13T02:58:52;19.40;99.90
30999;DHT22;20549;50.042;8.968;2023-10-13T03:01:24;19.40;99.90
30999;DHT22;20549;50.042;8.968;2023-10-13T03:03:51;19.40;99.90
30999;DHT22;20549;50.042;8.968;2023-10-13T03:06:21;19.40;99.90
30999;DHT22;20549;50.042;8.968;2023-10-13T03:08:59;19.40;99.90
30999;DHT22;20549;50.042;8.968;2023-10-13T03:11:25;19.40;99.90
30999;DHT22;20549;50.042;8.968;2023-10-13T03:13:51;19.40;99.90
30999;DHT22;20549;50.042;8.968;2023-10-13T03:16:18;19.40;99.90
30999;DHT22;20549;50.042;8.968;2023-10-13T03:18:48;19.30;99.90
30999;DHT22;20549;50.042;8.968;2023-10-13T03:21:11;19.30;99.90
30999;DHT22;20549;50.042;8.968;2023-10-13T03:23:38;19.20;99.90
30999;DHT22;20549;50.042;8.968;2023-10-13T03:26:08;19.20;99.90
30999;DHT22;20549;50.042;8.968;2023-10-13T03:28:31;19.20;99.90
30999;DHT22;20549;50.042;8.968;2023-10-13T03:30:58;19.20;99.90
30999;DHT22;20549;50.042;8.968;2023-10-13T03:33:24;19.20;99.90
30999;DHT22;20549;50.042;8.968;2023-10-13T03:35:53;19.10;99.90
30999;DHT22;20549;50.042;8.968;2023-10-13T03:38:20;19.10;99.90
30999;DHT22;20549;50.042;8.968;2023-10-13T03:40:48;19.10;99.90
30999;DHT22;20549;50.042;8.968;2023-10-13T03:43:15;19.10;99.90
30999;DHT22;20549;50.042;8.968;2023-10-13T03:45:45;19.10;99.90
30999;DHT22;20549;50.042;8.968;2023-10-13T03:48:17;19.10;99.90
30999;DHT22;20549;50.042;8.968;2023-10-13T03:50:53;19.10;99.90
30999;DHT22;20549;50.042;8.968;2023-10-13T03:53:34;19.10;99.90
30999;DHT22;20549;50.042;8.968;2023-10-13T03:56:04;19.10;99.90
30999;DHT22;20549;50.042;8.968;2023-10-13T03:58:36;19.10;99.90
30999;DHT22;20549;50.042;8.968;2023-10-13T04:01:03;19.00;99.90
30999;DHT22;20549;50.042;8.968;2023-10-13T04:03:29;19.00;99.90
30999;DHT22;20549;50.042;8.968;2023-10-13T04:06:05;19.00;99.90
30999;DHT22;20549;50.042;8.968;2023-10-13T04:08:28;19.00;99.90
30999;DHT22;20549;50.042;8.968;2023-10-13T04:10:57;19.00;99.90
30999;DHT22;20549;50.042;8.968;2023-10-13T04:13:24;19.00;99.90
30999;DHT22;20549;50.042;8.968;2023-10-13T04:16:07;19.00;99.90
30999;DHT22;20549;50.042;8.968;2023-10-13T04:18:41;19.00;99.90
30999;DHT22;20549;50.042;8.968;2023-10-13T04:21:26;19.00;99.90
30999;DHT22;20549;50.042;8.968;2023-10-13T04:24:05;19.00;99.90
30999;DHT22;20549;50.042;8.968;2023-10-13T04:26:47;19.00;99.90
30999;DHT22;20549;50.042;8.968;2023-10-13T04:29:28;19.00;99.90
30999;DHT22;20549;50.042;8.968;2023-10-13T04:31:57;19.00;99.90
30999;DHT22;20549;50.042;8.968;2023-10-13T04:34:23;18.90;99.90
30999;DHT22;20549;50.042;8.968;2023-10-13T04:36:50;18.90;99.90
30999;DHT22;20549;50.042;8.968;2023-10-13T04:39:17;18.90;99.90
30999;DHT22;20549;50.042;8.968;2023-10-13T04:41:43;18.90;99.90
30999;DHT22;20549;50.042;8.968;2023-10-13T04:44:16;18.90;99.90
30999;DHT22;20549;50.042;8.968;2023-10-13T04:46:54;18.90;99.90
30999;DHT22;20549;50.042;8.968;2023-10-13T04:49:21;18.90;99.90
30999;DHT22;20549;50.042;8.968;2023-10-13T04:52:03;18.90;99.90
30999;DHT22;20549;50.042;8.968;2023-10-13T04:54:35;18.90;99.90
30999;DHT22;20549;50.042;8.968;2023-10-13T04:57:22;18.90;99.90
30999;DHT22;20549;50.042;8.968;2023-10-13T05:00:02;18.90;99.90
30999;DHT22;20549;50.042;8.968;2023-10-13T05:02:30;19.00;99.90
30999;DHT22;20549;50.042;8.968;2023-10-13T05:05:05;19.00;99.90
30999;DHT22;20549;50.042;8.968;2023-10-13T05:07:34;19.00;99.90
30999;DHT22;20549;50.042;8.968;2023-10-13T05:10:16;19.00;99.90
30999;DHT22;20549;50.042;8.968;2023-10-13T05:12:55;19.00;99.90
30999;DHT22;20549;50.042;8.968;2023-10-13T05:15:27;19.00;99.90
30999;DHT22;20549;50.042;8.968;2023-10-13T05:18:12;19.10;99.90
30999;DHT22;20549;50.042;8.968;2023-10-13T05:20:57;19.10;99.90
30999;DHT22;20549;50.042;8.968;2023-10-13T05:23:42;19.10;99.90
30999;DHT22;20549;50.042;8.968;2023-10-13T05:26:27;19.10;99.90
30999;DHT22;20549;50.042;8.968;2023-10-13T05:29:11;19.10;99.90
30999;DHT22;20549;50.042;8.968;2023-10-13T05:31:56;19.10;99.90
30999;DHT22;20549;50.042;8.968;2023-10-13T05:34:40;19.10;99.90
30999;DHT22;20549;50.042;8.968;2023-10-13T05:37:25;19.10;99.90
30999;DHT22;20549;50.042;8.968;2023-10-13T05:39:57;19.10;99.90
30999;DHT22;20549;50.042;8.968;2023-10-13T05:42:42;19.20;99.90
30999;DHT22;20549;50.042;8.968;2023-10-13T05:45:27;19.20;99.90
30999;DHT22;20549;50.042;8.968;2023-10-13T05:48:12;19.20;99.90
30999;DHT22;20549;50.042;8.968;2023-10-13T05:50:39;19.20;99.90
30999;DHT22;20549;50.042;8.968;2023-10-13T05:53:17;19.20;99.90
30999;DHT22;20549;50.042;8.968;2023-10-13T05:56:03;19.20;99.90
30999;DHT22;20549;50.042;8.968;2023-10-13T05:58:47;19.30;99.90
30999;DHT22;20549;50.042;8.968;2023-10-13T06:01:31;19.20;99.90
30999;DHT22;20549;50.042;8.968;2023-10-13T06:04:16;19.20;99.90
30999;DHT22;20549;50.042;8.968;2023-10-13T06:06:54;19.30;99.90
30999;DHT22;20549;50.042;8.968;2023-10-13T06:09:39;19.30;99.90
30999;DHT22;20549;50.042;8.968;2023-10-13T06:12:24;19.30;99.90
30999;DHT22;20549;50.042;8.968;2023-10-13T06:15:08;19.30;99.90
30999;DHT22;20549;50.042;8.968;2023-10-13T06:17:53;19.30;99.90
30999;DHT22;20549;50.042;8.968;2023-10-13T06:20:41;19.30;99.90
30999;DHT22;20549;50.042;8.968;2023-10-13T06:23:25;19.40;99.90
30999;DHT22;20549;50.042;8.968;2023-10-13T06:26:10;19.40;99.90
30999;DHT22;20549;50.042;8.968;2023-10-13T06:28:55;19.40;99.90
30999;DHT22;20549;50.042;8.968;2023-10-13T06:31:21;19.50;99.90
30999;DHT22;20549;50.042;8.968;2023-10-13T06:33:48;19.60;99.90
30999;DHT22;20549;50.042;8.968;2023-10-13T06:36:15;19.70;99.90
30999;DHT22;20549;50.042;8.968;2023-10-13T06:38:41;19.80;99.90
30999;DHT22;20549;50.042;8.968;2023-10-13T06:41:08;20.00;99.90
30999;DHT22;20549;50.042;8.968;2023-10-13T06:43:37;20.10;99.90
30999;DHT22;20549;50.042;8.968;2023-10-13T06:46:07;20.20;99.90
30999;DHT22;20549;50.042;8.968;2023-10-13T06:48:33;20.40;99.90
30999;DHT22;20549;50.042;8.968;2023-10-13T06:51:00;20.50;99.90
30999;DHT22;20549;50.042;8.968;2023-10-13T06:53:26;20.70;99.90
30999;DHT22;20549;50.042;8.968;2023-10-13T06:55:53;20.90;99.90
30999;DHT22;20549;50.042;8.968;2023-10-13T06:58:20;21.20;99.90
30999;DHT22;20549;50.042;8.968;2023-10-13T07:00:46;21.40;99.90
30999;DHT22;20549;50.042;8.968;2023-10-13T07:03:24;21.60;99.90
30999;DHT22;20549;50.042;8.968;2023-10-13T07:05:51;21.80;99.90
30999;DHT22;20549;50.042;8.968;2023-10-13T07:08:17;22.00;99.90
30999;DHT22;20549;50.042;8.968;2023-10-13T07:10:47;22.20;99.90
30999;DHT22;20549;50.042;8.968;2023-10-13T07:13:32;22.40;99.90
30999;DHT22;20549;50.042;8.968;2023-10-13T07:16:00;22.60;99.90
30999;DHT22;20549;50.042;8.968;2023-10-13T07:18:28;22.80;99.90
30999;DHT22;20549;50.042;8.968;2023-10-13T07:20:55;23.00;99.90
30999;DHT22;20549;50.042;8.968;2023-10-13T07:23:21;23.30;99.90
30999;DHT22;20549;50.042;8.968;2023-10-13T07:25:54;23.70;99.90
30999;DHT22;20549;50.042;8.968;2023-10-13T07:28:17;24.00;99.90
30999;DHT22;20549;50.042;8.968;2023-10-13T07:30:44;24.40;99.90
30999;DHT22;20549;50.042;8.968;2023-10-13T07:33:19;24.90;99.90
30999;DHT22;20549;50.042;8.968;2023-10-13T07:35:58;25.30;99.90
30999;DHT22;20549;50.042;8.968;2023-10-13T07:38:15;25.80;99.90
30999;DHT22;20549;50.042;8.968;2023-10-13T07:40:41;26.30;99.90
30999;DHT22;20549;50.042;8.968;2023-10-13T07:43:08;26.80;99.90
30999;DHT22;20549;50.042;8.968;2023-10-13T07:45:38;27.30;99.90
30999;DHT22;20549;50.042;8.968;2023-10-13T07:48:04;27.70;99.90
30999;DHT22;20549;50.042;8.968;2023-10-13T07:50:58;28.00;98.00
30999;DHT22;20549;50.042;8.968;2023-10-13T07:53:24;28.40;95.70
30999;DHT22;20549;50.042;8.968;2023-10-13T07:55:51;28.70;95.10
30999;DHT22;20549;50.042;8.968;2023-10-13T07:58:24;29.00;94.60
30999;DHT22;20549;50.042;8.968;2023-10-13T08:00:53;29.40;93.80
30999;DHT22;20549;50.042;8.968;2023-10-13T08:03:25;29.70;92.20
30999;DHT22;20549;50.042;8.968;2023-10-13T08:05:58;30.00;90.40
30999;DHT22;20549;50.042;8.968;2023-10-13T08:08:24;30.30;89.90
30999;DHT22;20549;50.042;8.968;2023-10-13T08:10:52;30.60;87.40
30999;DHT22;20549;50.042;8.968;2023-10-13T08:13:18;30.80;83.50
30999;DHT22;20549;50.042;8.968;2023-10-13T08:15:44;31.10;81.60
30999;DHT22;20549;50.042;8.968;2023-10-13T08:18:11;31.20;80.10
30999;DHT22;20549;50.042;8.968;2023-10-13T08:20:39;31.40;78.70
30999;DHT22;20549;50.042;8.968;2023-10-13T08:23:04;31.60;78.40
30999;DHT22;20549;50.042;8.968;2023-10-13T08:25:36;31.70;75.90
30999;DHT22;20549;50.042;8.968;2023-10-13T08:28:03;31.90;75.10
30999;DHT22;20549;50.042;8.968;2023-10-13T08:30:33;32.00;74.10
30999;DHT22;20549;50.042;8.968;2023-10-13T08:32:58;32.20;73.70
30999;DHT22;20549;50.042;8.968;2023-10-13T08:35:25;32.50;73.70
30999;DHT22;20549;50.042;8.968;2023-10-13T08:37:52;32.80;73.50
30999;DHT22;20549;50.042;8.968;2023-10-13T08:40:18;33.10;72.50
30999;DHT22;20549;50.042;8.968;2023-10-13T08:43:03;33.50;71.10
30999;DHT22;20549;50.042;8.968;2023-10-13T08:45:30;33.80;69.90
30999;DHT22;20549;50.042;8.968;2023-10-13T08:47:59;34.10;68.90
30999;DHT22;20549;50.042;8.968;2023-10-13T08:50:48;34.20;66.90
30999;DHT22;20549;50.042;8.968;2023-10-13T08:53:19;34.20;64.30
30999;DHT22;20549;50.042;8.968;2023-10-13T08:55:57;34.20;63.50
30999;DHT22;20549;50.042;8.968;2023-10-13T08:58:29;34.10;63.70
30999;DHT22;20549;50.042;8.968;2023-10-13T09:00:55;34.00;63.70
30999;DHT22;20549;50.042;8.968;2023-10-13T09:03:22;34.00;63.90
30999;DHT22;20549;50.042;8.968;2023-10-13T09:05:54;34.20;63.50
30999;DHT22;20549;50.042;8.968;2023-10-13T09:08:27;34.30;63.70
30999;DHT22;20549;50.042;8.968;2023-10-13T09:11:03;34.50;63.20
30999;DHT22;20549;50.042;8.968;2023-10-13T09:13:38;34.70;62.10
30999;DHT22;20549;50.042;8.968;2023-10-13T09:16:10;34.80;61.20
30999;DHT22;20549;50.042;8.968;2023-10-13T09:18:36;34.90;60.20
30999;DHT22;20549;50.042;8.968;2023-10-13T09:21:09;34.90;59.50
30999;DHT22;20549;50.042;8.968;2023-10-13T09:23:53;34.90;58.80
30999;DHT22;20549;50.042;8.968;2023-10-13T09:26:20;34.80;58.40
30999;DHT22;20549;50.042;8.968;2023-10-13T09:28:46;34.70;57.50
30999;DHT22;20549;50.042;8.968;2023-10-13T09:31:13;34.60;57.40
30999;DHT22;20549;50.042;8.968;2023-10-13T09:33:40;34.40;57.00
30999;DHT22;20549;50.042;8.968;2023-10-13T09:36:06;34.20;56.80
30999;DHT22;20549;50.042;8.968;2023-10-13T09:38:33;34.10;56.30
30999;DHT22;20549;50.042;8.968;2023-10-13T09:40:59;33.90;56.20
30999;DHT22;20549;50.042;8.968;2023-10-13T09:43:29;33.60;56.00
30999;DHT22;20549;50.042;8.968;2023-10-13T09:45:58;33.40;56.00
30999;DHT22;20549;50.042;8.968;2023-10-13T09:48:34;33.20;55.70
30999;DHT22;20549;50.042;8.968;2023-10-13T09:51:03;32.90;55.70
30999;DHT22;20549;50.042;8.968;2023-10-13T09:53:27;32.70;55.60
30999;DHT22;20549;50.042;8.968;2023-10-13T09:55:58;32.50;55.80
30999;DHT22;20549;50.042;8.968;2023-10-13T09:58:20;32.30;55.80
30999;DHT22;20549;50.042;8.968;2023-10-13T10:00:47;32.10;56.10
30999;DHT22;20549;50.042;8.968;2023-10-13T10:03:13;31.90;56.00
30999;DHT22;20549;50.042;8.968;2023-10-13T10:06:01;31.80;55.80
30999;DHT22;20549;50.042;8.968;2023-10-13T10:08:33;31.60;55.60
30999;DHT22;20549;50.042;8.968;2023-10-13T10:11:21;31.40;55.50
30999;DHT22;20549;50.042;8.968;2023-10-13T10:13:52;31.20;55.40
30999;DHT22;20549;50.042;8.968;2023-10-13T10:16:15;31.00;55.20
30999;DHT22;20549;50.042;8.968;2023-10-13T10:18:41;30.90;55.30
30999;DHT22;20549;50.042;8.968;2023-10-13T10:21:07;30.70;55.50
30999;DHT22;20549;50.042;8.968;2023-10-13T10:23:34;30.60;55.40
30999;DHT22;20549;50.042;8.968;2023-10-13T10:26:10;30.50;55.60
30999;DHT22;20549;50.042;8.968;2023-10-13T10:28:39;30.40;55.30
30999;DHT22;20549;50.042;8.968;2023-10-13T10:31:06;30.30;55.40
30999;DHT22;20549;50.042;8.968;2023-10-13T10:33:32;30.20;55.60
30999;DHT22;20549;50.042;8.968;2023-10-13T10:35:59;30.20;55.90
30999;DHT22;20549;50.042;8.968;2023-10-13T10:38:25;30.10;55.90
30999;DHT22;20549;50.042;8.968;2023-10-13T10:40:55;30.10;56.00
30999;DHT22;20549;50.042;8.968;2023-10-13T10:43:38;30.10;55.80
30999;DHT22;20549;50.042;8.968;2023-10-13T10:46:28;30.10;55.80
30999;DHT22;20549;50.042;8.968;2023-10-13T10:48:58;30.20;55.90
30999;DHT22;20549;50.042;8.968;2023-10-13T10:51:27;30.20;55.70
30999;DHT22;20549;50.042;8.968;2023-10-13T10:53:53;30.20;55.60
30999;DHT22;20549;50.042;8.968;2023-10-13T10:56:24;30.10;55.40
30999;DHT22;20549;50.042;8.968;2023-10-13T10:58:52;30.10;55.30
30999;DHT22;20549;50.042;8.968;2023-10-13T11:01:16;30.10;55.20
30999;DHT22;20549;50.042;8.968;2023-10-13T11:03:59;30.10;55.30
30999;DHT22;20549;50.042;8.968;2023-10-13T11:06:27;30.10;55.30
30999;DHT22;20549;50.042;8.968;2023-10-13T11:09:06;30.00;55.20
30999;DHT22;20549;50.042;8.968;2023-10-13T11:11:45;30.00;55.50
30999;DHT22;20549;50.042;8.968;2023-10-13T11:14:19;30.00;55.60
30999;DHT22;20549;50.042;8.968;2023-10-13T11:16:47;29.90;55.30
30999;DHT22;20549;50.042;8.968;2023-10-13T11:19:13;30.00;55.40
30999;DHT22;20549;50.042;8.968;2023-10-13T11:21:39;30.00;55.30
30999;DHT22;20549;50.042;8.968;2023-10-13T11:24:06;30.00;55.20
30999;DHT22;20549;50.042;8.968;2023-10-13T11:26:35;30.00;55.20
30999;DHT22;20549;50.042;8.968;2023-10-13T11:29:02;30.10;55.10
30999;DHT22;20549;50.042;8.968;2023-10-13T11:31:28;30.10;55.30
30999;DHT22;20549;50.042;8.968;2023-10-13T11:33:55;30.10;55.20
30999;DHT22;20549;50.042;8.968;2023-10-13T11:36:21;30.10;55.10
30999;DHT22;20549;50.042;8.968;2023-10-13T11:38:48;30.10;55.10
30999;DHT22;20549;50.042;8.968;2023-10-13T11:41:15;30.10;54.90
30999;DHT22;20549;50.042;8.968;2023-10-13T11:43:45;30.00;54.70
30999;DHT22;20549;50.042;8.968;2023-10-13T11:46:20;30.00;54.80
30999;DHT22;20549;50.042;8.968;2023-10-13T11:49:01;29.90;54.60
30999;DHT22;20549;50.042;8.968;2023-10-13T11:51:27;29.90;54.50
30999;DHT22;20549;50.042;8.968;2023-10-13T11:53:54;29.70;54.20
30999;DHT22;20549;50.042;8.968;2023-10-13T11:56:21;29.60;54.30
30999;DHT22;20549;50.042;8.968;2023-10-13T11:58:47;29.60;54.30
30999;DHT22;20549;50.042;8.968;2023-10-13T12:01:14;29.50;54.30
30999;DHT22;20549;50.042;8.968;2023-10-13T12:03:44;29.40;54.20
30999;DHT22;20549;50.042;8.968;2023-10-13T12:06:28;29.40;54.20
30999;DHT22;20549;50.042;8.968;2023-10-13T12:09:09;29.40;54.50
30999;DHT22;20549;50.042;8.968;2023-10-13T12:11:38;29.40;54.40
30999;DHT22;20549;50.042;8.968;2023-10-13T12:14:05;29.50;54.50
30999;DHT22;20549;50.042;8.968;2023-10-13T12:16:43;29.50;54.20
30999;DHT22;20549;50.042;8.968;2023-10-13T12:19:10;29.50;54.10
30999;DHT22;20549;50.042;8.968;2023-10-13T12:21:36;29.60;53.90
30999;DHT22;20549;50.042;8.968;2023-10-13T12:24:03;29.60;53.60
30999;DHT22;20549;50.042;8.968;2023-10-13T12:26:30;29.50;53.50
30999;DHT22;20549;50.042;8.968;2023-10-13T12:28:59;29.50;53.50
30999;DHT22;20549;50.042;8.968;2023-10-13T12:31:31;29.50;53.40
30999;DHT22;20549;50.042;8.968;2023-10-13T12:33:58;29.50;53.40
30999;DHT22;20549;50.042;8.968;2023-10-13T12:36:24;29.50;53.20
30999;DHT22;20549;50.042;8.968;2023-10-13T12:38:53;29.50;53.20
30999;DHT22;20549;50.042;8.968;2023-10-13T12:41:32;29.50;53.10
30999;DHT22;20549;50.042;8.968;2023-10-13T12:44:17;29.50;53.20
30999;DHT22;20549;50.042;8.968;2023-10-13T12:47:02;29.50;53.10
30999;DHT22;20549;50.042;8.968;2023-10-13T12:49:46;29.50;53.20
30999;DHT22;20549;50.042;8.968;2023-10-13T12:52:13;29.50;52.90
30999;DHT22;20549;50.042;8.968;2023-10-13T12:54:43;29.50;52.80
30999;DHT22;20549;50.042;8.968;2023-10-13T12:57:09;29.50;52.60
30999;DHT22;20549;50.042;8.968;2023-10-13T12:59:36;29.50;52.60
30999;DHT22;20549;50.042;8.968;2023-10-13T13:02:02;29.50;52.60
30999;DHT22;20549;50.042;8.968;2023-10-13T13:04:29;29.60;52.60
30999;DHT22;20549;50.042;8.968;2023-10-13T13:06:55;29.60;52.70
30999;DHT22;20549;50.042;8.968;2023-10-13T13:09:22;29.60;52.30
30999;DHT22;20549;50.042;8.968;2023-10-13T13:11:55;29.70;52.30
30999;DHT22;20549;50.042;8.968;2023-10-13T13:14:24;29.80;52.10
30999;DHT22;20549;50.042;8.968;2023-10-13T13:16:56;29.80;52.00
30999;DHT22;20549;50.042;8.968;2023-10-13T13:19:26;29.90;52.10
30999;DHT22;20549;50.042;8.968;2023-10-13T13:21:52;29.90;51.80
30999;DHT22;20549;50.042;8.968;2023-10-13T13:24:19;29.90;51.80
30999;DHT22;20549;50.042;8.968;2023-10-13T13:26:46;29.90;51.60
30999;DHT22;20549;50.042;8.968;2023-10-13T13:29:12;29.90;51.30
30999;DHT22;20549;50.042;8.968;2023-10-13T13:31:39;29.90;51.20
30999;DHT22;20549;50.042;8.968;2023-10-13T13:34:08;29.90;51.10
30999;DHT22;20549;50.042;8.968;2023-10-13T13:36:38;29.90;51.10
30999;DHT22;20549;50.042;8.968;2023-10-13T13:39:04;29.90;51.10
30999;DHT22;20549;50.042;8.968;2023-10-13T13:41:30;29.90;51.10
30999;DHT22;20549;50.042;8.968;2023-10-13T13:43:57;29.80;50.90
30999;DHT22;20549;50.042;8.968;2023-10-13T13:46:24;29.80;50.90
30999;DHT22;20549;50.042;8.968;2023-10-13T13:48:54;29.70;50.90
30999;DHT22;20549;50.042;8.968;2023-10-13T13:51:28;29.70;51.00
30999;DHT22;20549;50.042;8.968;2023-10-13T13:53:55;29.60;50.90
30999;DHT22;20549;50.042;8.968;2023-10-13T13:56:22;29.50;51.00
30999;DHT22;20549;50.042;8.968;2023-10-13T13:58:49;29.40;51.10
30999;DHT22;20549;50.042;8.968;2023-10-13T14:01:14;29.40;51.20
30999;DHT22;20549;50.042;8.968;2023-10-13T14:03:41;29.30;51.30
30999;DHT22;20549;50.042;8.968;2023-10-13T14:06:14;29.30;51.50
30999;DHT22;20549;50.042;8.968;2023-10-13T14:08:43;29.20;51.40
30999;DHT22;20549;50.042;8.968;2023-10-13T14:11:10;29.20;51.50
30999;DHT22;20549;50.042;8.968;2023-10-13T14:13:39;29.20;51.60
30999;DHT22;20549;50.042;8.968;2023-10-13T14:16:20;29.20;51.60
30999;DHT22;20549;50.042;8.968;2023-10-13T14:18:47;29.20;51.60
30999;DHT22;20549;50.042;8.968;2023-10-13T14:21:13;29.20;51.60
30999;DHT22;20549;50.042;8.968;2023-10-13T14:23:45;29.20;51.50
30999;DHT22;20549;50.042;8.968;2023-10-13T14:26:12;29.20;51.50
30999;DHT22;20549;50.042;8.968;2023-10-13T14:28:38;29.30;51.60
30999;DHT22;20549;50.042;8.968;2023-10-13T14:31:05;29.30;51.50
30999;DHT22;20549;50.042;8.968;2023-10-13T14:33:34;29.40;51.50
30999;DHT22;20549;50.042;8.968;2023-10-13T14:36:01;29.40;51.40
30999;DHT22;20549;50.042;8.968;2023-10-13T14:38:27;29.40;51.30
30999;DHT22;20549;50.042;8.968;2023-10-13T14:40:57;29.40;51.90
30999;DHT22;20549;50.042;8.968;2023-10-13T14:43:23;29.40;51.30
30999;DHT22;20549;50.042;8.968;2023-10-13T14:45:50;29.40;51.20
30999;DHT22;20549;50.042;8.968;2023-10-13T14:48:16;29.40;51.10
30999;DHT22;20549;50.042;8.968;2023-10-13T14:50:43;29.30;51.20
30999;DHT22;20549;50.042;8.968;2023-10-13T14:53:10;29.30;51.30
30999;DHT22;20549;50.042;8.968;2023-10-13T14:55:36;29.20;51.30
30999;DHT22;20549;50.042;8.968;2023-10-13T14:58:06;29.20;51.30
30999;DHT22;20549;50.042;8.968;2023-10-13T15:00:32;29.20;51.50
30999;DHT22;20549;50.042;8.968;2023-10-13T15:02:59;29.10;51.40
30999;DHT22;20549;50.042;8.968;2023-10-13T15:05:28;29.10;51.50
30999;DHT22;20549;50.042;8.968;2023-10-13T15:07:55;29.10;51.70
30999;DHT22;20549;50.042;8.968;2023-10-13T15:10:21;29.10;51.70
30999;DHT22;20549;50.042;8.968;2023-10-13T15:12:48;29.10;51.70
30999;DHT22;20549;50.042;8.968;2023-10-13T15:15:17;29.10;51.70
30999;DHT22;20549;50.042;8.968;2023-10-13T15:17:44;29.10;51.70
30999;DHT22;20549;50.042;8.968;2023-10-13T15:20:11;29.00;51.60
30999;DHT22;20549;50.042;8.968;2023-10-13T15:22:37;29.00;51.40
30999;DHT22;20549;50.042;8.968;2023-10-13T15:25:05;29.00;51.40
30999;DHT22;20549;50.042;8.968;2023-10-13T15:27:48;28.90;51.30
30999;DHT22;20549;50.042;8.968;2023-10-13T15:30:15;28.80;51.40
30999;DHT22;20549;50.042;8.968;2023-10-13T15:32:47;28.80;51.30
30999;DHT22;20549;50.042;8.968;2023-10-13T15:35:14;28.70;51.40
30999;DHT22;20549;50.042;8.968;2023-10-13T15:37:40;28.60;51.30
30999;DHT22;20549;50.042;8.968;2023-10-13T15:40:07;28.50;51.30
30999;DHT22;20549;50.042;8.968;2023-10-13T15:42:34;28.40;51.40
30999;DHT22;20549;50.042;8.968;2023-10-13T15:45:02;28.30;51.40
30999;DHT22;20549;50.042;8.968;2023-10-13T15:47:28;28.20;51.50
30999;DHT22;20549;50.042;8.968;2023-10-13T15:49:54;28.10;51.50